createdAt,value
2018-02-18T00:01:41.540Z,0.60
2018-02-18T00:04:09.381Z,0.60
2018-02-18T00:06:37.637Z,0.60
2018-02-18T00:09:05.387Z,0.60
2018-02-18T00:11:33.208Z,0.60
2018-02-18T00:14:00.841Z,0.50
2018-02-18T00:16:28.333Z,0.50
2018-02-18T00:18:55.999Z,0.40
2018-02-18T00:21:23.586Z,0.40
2018-02-18T00:23:52.215Z,0.50
2018-02-18T00:26:19.732Z,0.50
2018-02-18T00:28:48.094Z,0.50
2018-02-18T00:31:15.720Z,0.40
2018-02-18T00:33:44.222Z,0.50
2018-02-18T00:36:11.853Z,0.50
2018-02-18T00:38:40.236Z,0.50
2018-02-18T00:41:07.866Z,0.40
2018-02-18T00:43:36.340Z,0.40
2018-02-18T00:46:04.927Z,0.40
2018-02-18T00:48:32.482Z,0.40
2018-02-18T00:51:00.860Z,0.40
2018-02-18T00:53:28.565Z,0.40
2018-02-18T00:55:56.188Z,0.40
2018-02-18T00:58:24.522Z,0.40
2018-02-18T01:00:52.282Z,0.40
2018-02-18T01:03:20.067Z,0.30
2018-02-18T01:05:47.610Z,0.30
2018-02-18T01:08:15.187Z,0.30
2018-02-18T01:10:42.789Z,0.30
2018-02-18T01:13:11.082Z,0.20
2018-02-18T01:15:39.474Z,0.20
2018-02-18T01:18:06.992Z,0.20
2018-02-18T01:20:34.684Z,0.30
2018-02-18T01:23:03.036Z,0.30
2018-02-18T01:25:30.572Z,0.30
2018-02-18T01:27:58.110Z,0.30
2018-02-18T01:30:25.600Z,0.30
2018-02-18T01:32:53.091Z,0.30
2018-02-18T01:35:21.352Z,0.20
2018-02-18T01:37:49.592Z,0.20
2018-02-18T01:40:17.089Z,0.20
2018-02-18T01:42:45.351Z,0.20
2018-02-18T01:45:13.660Z,0.10
2018-02-18T01:47:41.246Z,0.10
2018-02-18T01:50:30.286Z,0.20
2018-02-18T01:52:58.570Z,0.20
2018-02-18T01:55:26.148Z,0.10
2018-02-18T01:57:53.624Z,0.10
2018-02-18T02:00:21.092Z,0.20
2018-02-18T02:02:48.693Z,0.20
2018-02-18T02:05:16.163Z,0.20
2018-02-18T02:07:44.438Z,0.30
2018-02-18T02:10:12.706Z,0.30
2018-02-18T02:12:40.964Z,0.30
2018-02-18T02:15:09.515Z,0.20
2018-02-18T02:17:36.973Z,0.30
2018-02-18T02:20:04.491Z,0.30
2018-02-18T02:22:32.746Z,0.40
2018-02-18T02:25:00.226Z,0.40
2018-02-18T02:27:27.704Z,0.30
2018-02-18T02:29:55.181Z,0.40
2018-02-18T02:32:22.684Z,0.40
2018-02-18T02:34:50.970Z,0.40
2018-02-18T02:37:19.256Z,0.30
2018-02-18T02:39:47.480Z,0.30
2018-02-18T02:42:15.206Z,0.30
2018-02-18T02:44:42.708Z,0.30
2018-02-18T02:47:10.198Z,0.40
2018-02-18T02:49:37.719Z,0.40
2018-02-18T02:52:05.203Z,0.30
2018-02-18T02:54:32.692Z,0.30
2018-02-18T02:57:00.969Z,0.20
2018-02-18T02:59:29.209Z,0.30
2018-02-18T03:01:56.682Z,0.20
2018-02-18T03:04:24.945Z,0.20
2018-02-18T03:06:52.471Z,0.20
2018-02-18T03:09:19.975Z,0.10
2018-02-18T03:11:47.482Z,0.10
2018-02-18T03:14:14.957Z,0.10
2018-02-18T03:16:42.454Z,0.10
2018-02-18T03:19:10.841Z,0.00
2018-02-18T03:21:38.335Z,0.00
2018-02-18T03:24:05.814Z,0.00
2018-02-18T03:26:33.387Z,0.10
2018-02-18T03:29:00.867Z,0.00
2018-02-18T03:31:28.381Z,0.00
2018-02-18T03:33:55.905Z,-0.10
2018-02-18T03:36:24.163Z,0.00
2018-02-18T03:38:52.408Z,0.00
2018-02-18T03:41:19.876Z,-0.10
2018-02-18T03:43:47.451Z,-0.10
2018-02-18T03:46:14.948Z,-0.10
2018-02-18T03:48:42.441Z,-0.20
2018-02-18T03:51:09.935Z,-0.20
2018-02-18T03:53:37.437Z,-0.20
2018-02-18T03:56:04.928Z,-0.20
2018-02-18T03:58:32.390Z,-0.30
2018-02-18T04:00:59.925Z,-0.30
2018-02-18T04:03:27.411Z,-0.30
2018-02-18T04:05:54.974Z,-0.40
2018-02-18T04:08:22.432Z,-0.40
2018-02-18T04:10:49.926Z,-0.40
2018-02-18T04:13:18.156Z,-0.40
2018-02-18T04:15:45.729Z,-0.40
2018-02-18T04:18:13.194Z,-0.50
2018-02-18T04:20:40.674Z,-0.50
2018-02-18T04:23:08.920Z,-0.60
2018-02-18T04:25:36.377Z,-0.60
2018-02-18T04:28:03.915Z,-0.60
2018-02-18T04:30:31.393Z,-0.60
2018-02-18T04:32:58.899Z,-0.60
2018-02-18T04:35:27.128Z,-0.70
2018-02-18T04:37:54.614Z,-0.70
2018-02-18T04:40:22.126Z,-0.70
2018-02-18T04:42:49.644Z,-0.80
2018-02-18T04:45:18.073Z,-0.80
2018-02-18T04:47:45.624Z,-0.90
2018-02-18T04:50:13.110Z,-0.90
2018-02-18T04:52:40.586Z,-0.90
2018-02-18T04:55:08.166Z,-0.90
2018-02-18T04:57:36.483Z,-0.90
2018-02-18T05:00:03.986Z,-0.90
2018-02-18T05:02:31.452Z,-0.90
2018-02-18T05:04:59.719Z,-0.90
2018-02-18T05:07:27.227Z,-0.90
2018-02-18T05:09:54.735Z,-0.90
2018-02-18T05:12:22.191Z,-0.90
2018-02-18T05:14:49.656Z,-0.90
2018-02-18T05:17:17.930Z,-1.00
2018-02-18T05:19:46.178Z,-1.00
2018-02-18T05:22:13.716Z,-1.00
2018-02-18T05:24:41.230Z,-1.00
2018-02-18T05:27:09.465Z,-1.10
2018-02-18T05:29:36.959Z,-1.10
2018-02-18T05:32:04.447Z,-1.10
2018-02-18T05:34:32.718Z,-1.10
2018-02-18T05:37:00.260Z,-1.10
2018-02-18T05:39:27.800Z,-1.10
2018-02-18T05:41:55.287Z,-1.10
2018-02-18T05:44:23.549Z,-1.10
2018-02-18T05:46:51.134Z,-1.10
2018-02-18T05:49:19.350Z,-1.10
2018-02-18T05:51:46.830Z,-1.10
2018-02-18T05:54:14.371Z,-1.10
2018-02-18T05:56:41.863Z,-1.10
2018-02-18T05:59:09.344Z,-1.20
2018-02-18T06:01:37.626Z,-1.20
2018-02-18T06:04:05.895Z,-1.20
2018-02-18T06:06:34.158Z,-1.20
2018-02-18T06:09:01.632Z,-1.20
2018-02-18T06:11:29.884Z,-1.10
2018-02-18T06:13:57.363Z,-1.20
2018-02-18T06:16:25.595Z,-1.20
2018-02-18T06:18:53.302Z,-1.20
2018-02-18T06:21:21.597Z,-1.20
2018-02-18T06:23:49.859Z,-1.30
2018-02-18T06:26:18.101Z,-1.30
2018-02-18T06:28:45.573Z,-1.40
2018-02-18T06:31:13.078Z,-1.40
2018-02-18T06:33:40.566Z,-1.40
2018-02-18T06:36:08.065Z,-1.40
2018-02-18T06:38:36.383Z,-1.50
2018-02-18T06:41:03.883Z,-1.50
2018-02-18T06:43:31.419Z,-1.40
2018-02-18T06:45:58.976Z,-1.30
2018-02-18T06:48:26.450Z,-1.40
2018-02-18T06:50:53.931Z,-1.40
2018-02-18T06:53:21.402Z,-1.60
2018-02-18T06:55:49.725Z,-1.70
2018-02-18T06:58:17.370Z,-1.70
2018-02-18T07:00:44.868Z,-1.60
2018-02-18T07:03:12.344Z,-1.60
2018-02-18T07:05:39.865Z,-1.50
2018-02-18T07:08:07.344Z,-1.40
2018-02-18T07:10:35.117Z,-1.30
2018-02-18T07:13:02.582Z,-1.30
2018-02-18T07:15:30.128Z,-1.20
2018-02-18T07:17:57.787Z,-1.20
2018-02-18T07:20:25.248Z,-1.10
2018-02-18T07:22:52.771Z,-1.10
2018-02-18T07:25:20.311Z,-1.10
2018-02-18T07:27:48.636Z,-1.00
2018-02-18T07:30:16.093Z,-1.00
2018-02-18T07:32:43.623Z,-1.00
2018-02-18T07:35:11.167Z,-1.00
2018-02-18T07:37:38.726Z,-0.90
2018-02-18T07:40:07.020Z,-0.70
2018-02-18T07:42:34.516Z,-0.70
2018-02-18T07:45:02.062Z,-0.60
2018-02-18T07:47:29.713Z,-0.60
2018-02-18T07:49:57.216Z,-0.50
2018-02-18T07:52:24.883Z,-0.40
2018-02-18T07:54:53.313Z,-0.30
2018-02-18T07:57:20.823Z,-0.30
2018-02-18T07:59:48.365Z,-0.20
2018-02-18T08:02:15.839Z,-0.10
2018-02-18T08:04:43.354Z,-0.10
2018-02-18T08:07:11.195Z,-0.10
2018-02-18T08:09:39.453Z,0.20
2018-02-18T08:12:07.697Z,0.30
2018-02-18T08:14:36.031Z,0.30
2018-02-18T08:17:03.573Z,0.30
2018-02-18T08:19:31.833Z,0.40
2018-02-18T08:21:59.306Z,0.40
2018-02-18T08:24:27.545Z,0.60
2018-02-18T08:26:55.070Z,0.60
2018-02-18T08:29:22.640Z,0.80
2018-02-18T08:31:50.155Z,0.90
2018-02-18T08:34:18.396Z,2.10
2018-02-18T08:36:45.880Z,2.10
2018-02-18T08:39:13.364Z,3.50
2018-02-18T08:41:41.678Z,6.60
2018-02-18T08:44:09.240Z,6.60
2018-02-18T08:46:37.563Z,8.80
2018-02-18T08:49:05.034Z,8.80
2018-02-18T08:51:33.250Z,10.40
2018-02-18T08:54:00.825Z,10.40
2018-02-18T08:56:28.346Z,11.10
2018-02-18T08:58:56.656Z,11.30
2018-02-18T09:01:24.170Z,11.20
2018-02-18T09:03:52.444Z,11.10
2018-02-18T09:06:20.733Z,11.10
2018-02-18T09:08:49.053Z,11.30
2018-02-18T09:11:16.575Z,11.30
2018-02-18T09:13:44.306Z,11.40
2018-02-18T09:16:11.859Z,11.30
2018-02-18T09:18:39.408Z,11.00
2018-02-18T09:21:06.957Z,10.90
2018-02-18T09:23:34.471Z,10.30
2018-02-18T09:26:02.027Z,10.70
2018-02-18T09:28:30.284Z,11.50
2018-02-18T09:30:57.813Z,11.50
2018-02-18T09:33:25.304Z,11.80
2018-02-18T09:35:52.947Z,11.70
2018-02-18T09:38:20.387Z,12.30
2018-02-18T09:40:47.904Z,12.70
2018-02-18T09:43:15.405Z,12.90
2018-02-18T09:45:42.927Z,13.00
2018-02-18T09:48:10.412Z,12.70
2018-02-18T09:50:37.988Z,12.60
2018-02-18T09:53:05.469Z,13.20
2018-02-18T09:55:33.784Z,13.00
2018-02-18T09:58:01.270Z,13.00
2018-02-18T10:00:28.940Z,12.30
2018-02-18T10:02:56.490Z,11.80
2018-02-18T10:05:24.008Z,11.80
2018-02-18T10:07:52.235Z,10.50
2018-02-18T10:10:20.013Z,10.50
2018-02-18T10:12:47.509Z,10.40
2018-02-18T10:15:15.745Z,9.40
2018-02-18T10:17:43.237Z,9.40
2018-02-18T10:20:11.509Z,9.40
2018-02-18T10:22:39.883Z,9.50
2018-02-18T10:25:07.912Z,9.50
2018-02-18T10:27:35.395Z,9.80
2018-02-18T10:30:02.924Z,9.70
2018-02-18T10:32:30.425Z,9.10
2018-02-18T10:34:57.914Z,8.80
2018-02-18T10:37:26.191Z,9.20
2018-02-18T10:39:53.958Z,9.20
2018-02-18T10:42:21.500Z,9.00
2018-02-18T10:44:49.175Z,9.00
2018-02-18T10:47:16.730Z,9.20
2018-02-18T10:49:45.216Z,10.30
2018-02-18T10:52:13.585Z,10.10
2018-02-18T10:54:41.923Z,10.20
2018-02-18T10:57:09.535Z,10.10
2018-02-18T10:59:37.802Z,10.20
2018-02-18T11:02:05.335Z,10.20
2018-02-18T11:04:32.829Z,10.20
2018-02-18T11:07:01.073Z,9.70
2018-02-18T11:09:28.535Z,9.70
2018-02-18T11:11:56.021Z,9.10
2018-02-18T11:14:23.573Z,8.40
2018-02-18T11:16:51.057Z,8.10
2018-02-18T11:19:19.397Z,7.80
2018-02-18T11:21:46.892Z,7.70
2018-02-18T11:24:15.159Z,7.60
2018-02-18T11:26:43.508Z,7.60
2018-02-18T11:29:11.069Z,7.50
2018-02-18T11:31:38.556Z,7.40
2018-02-18T11:34:06.875Z,7.50
2018-02-18T11:36:34.442Z,7.50
2018-02-18T11:39:01.907Z,7.50
2018-02-18T11:41:29.415Z,7.50
2018-02-18T11:43:57.685Z,7.50
2018-02-18T11:46:25.989Z,7.50
2018-02-18T11:48:53.541Z,7.50
2018-02-18T11:51:21.798Z,7.60
2018-02-18T11:53:49.375Z,7.60
2018-02-18T11:56:17.791Z,7.60
2018-02-18T11:58:45.612Z,7.60
2018-02-18T12:01:13.899Z,7.60
2018-02-18T12:03:42.202Z,7.60
2018-02-18T12:06:09.923Z,7.60
2018-02-18T12:08:37.392Z,7.70
2018-02-18T12:11:05.637Z,7.60
2018-02-18T12:13:33.163Z,7.60
2018-02-18T12:16:00.646Z,7.70
2018-02-18T12:18:28.142Z,7.80
2018-02-18T12:20:56.582Z,7.80
2018-02-18T12:23:24.091Z,7.80
2018-02-18T12:25:52.517Z,7.80
2018-02-18T12:28:20.082Z,7.80
2018-02-18T12:30:47.554Z,7.80
2018-02-18T12:33:15.051Z,7.80
2018-02-18T12:35:43.300Z,7.80
2018-02-18T12:38:11.044Z,7.80
2018-02-18T12:40:38.534Z,7.80
2018-02-18T12:43:06.003Z,7.70
2018-02-18T12:45:34.484Z,7.80
2018-02-18T12:48:02.824Z,7.90
2018-02-18T12:50:30.305Z,7.90
2018-02-18T12:52:58.030Z,7.90
2018-02-18T12:55:25.589Z,8.00
2018-02-18T12:57:53.093Z,8.10
2018-02-18T13:00:21.368Z,8.00
2018-02-18T13:02:48.960Z,8.00
2018-02-18T13:05:17.200Z,7.80
2018-02-18T13:07:44.713Z,7.80
2018-02-18T13:10:12.303Z,7.90
2018-02-18T13:12:39.788Z,8.00
2018-02-18T13:15:07.361Z,7.90
2018-02-18T13:17:34.822Z,8.00
2018-02-18T13:20:03.083Z,8.20
2018-02-18T13:22:31.371Z,8.20
2018-02-18T13:24:59.659Z,8.20
2018-02-18T13:27:27.914Z,8.30
2018-02-18T13:29:55.433Z,8.20
2018-02-18T13:32:23.114Z,8.20
2018-02-18T13:34:50.678Z,8.20
2018-02-18T13:37:18.239Z,8.30
2018-02-18T13:39:45.738Z,8.30
2018-02-18T13:42:13.235Z,8.30
2018-02-18T13:44:40.740Z,8.40
2018-02-18T13:47:08.198Z,8.50
2018-02-18T13:49:36.478Z,8.60
2018-02-18T13:52:04.716Z,8.60
2018-02-18T13:54:32.211Z,8.60
2018-02-18T13:57:00.482Z,8.70
2018-02-18T13:59:28.061Z,8.70
2018-02-18T14:01:56.308Z,8.90
2018-02-18T14:04:23.892Z,8.80
2018-02-18T14:06:51.627Z,8.90
2018-02-18T14:09:19.130Z,8.80
2018-02-18T14:11:47.486Z,8.80
2018-02-18T14:14:15.245Z,8.80
2018-02-18T14:16:42.818Z,8.80
2018-02-18T14:19:11.079Z,8.80
2018-02-18T14:21:38.584Z,8.80
2018-02-18T14:24:06.054Z,8.80
2018-02-18T14:26:33.519Z,8.80
2018-02-18T14:29:01.047Z,9.00
2018-02-18T14:31:29.543Z,9.00
2018-02-18T14:33:57.071Z,9.00
2018-02-18T14:36:25.363Z,9.00
2018-02-18T14:38:53.621Z,9.00
2018-02-18T14:41:33.132Z,9.00
2018-02-18T14:44:12.379Z,9.00
2018-02-18T14:46:51.770Z,8.90
2018-02-18T14:49:31.141Z,8.80
2018-02-18T14:52:10.608Z,8.80
2018-02-18T14:57:41.713Z,8.50
2018-02-18T15:00:09.228Z,8.50
2018-02-18T15:02:36.742Z,8.40
2018-02-18T15:05:04.271Z,8.30
2018-02-18T15:07:32.505Z,8.40
2018-02-18T15:10:00.200Z,8.40
2018-02-18T15:12:28.556Z,8.50
2018-02-18T15:14:56.025Z,8.50
2018-02-18T15:17:23.555Z,8.50
2018-02-18T15:19:51.029Z,8.50
2018-02-18T15:22:18.554Z,8.60
2018-02-18T15:24:46.039Z,8.50
2018-02-18T15:27:13.629Z,8.20
2018-02-18T15:29:41.986Z,8.20
2018-02-18T15:32:09.668Z,8.20
2018-02-18T15:34:38.126Z,8.10
2018-02-18T15:37:06.487Z,8.10
2018-02-18T15:39:33.962Z,8.10
2018-02-18T15:42:01.506Z,8.10
2018-02-18T15:44:28.968Z,8.00
2018-02-18T15:46:56.860Z,8.10
2018-02-18T15:49:24.333Z,8.10
2018-02-18T15:51:51.836Z,8.00
2018-02-18T15:54:19.367Z,8.00
2018-02-18T15:56:47.619Z,7.80
2018-02-18T15:59:15.132Z,7.80
2018-02-18T16:01:42.689Z,7.80
2018-02-18T16:04:10.187Z,7.80
2018-02-18T16:06:37.686Z,7.70
2018-02-18T16:09:06.073Z,7.80
2018-02-18T16:11:33.550Z,7.70
2018-02-18T16:14:01.063Z,7.80
2018-02-18T16:16:28.645Z,7.80
2018-02-18T16:18:56.177Z,7.80
2018-02-18T16:21:23.630Z,7.80
2018-02-18T16:23:51.721Z,7.70
2018-02-18T16:26:20.018Z,7.40
2018-02-18T16:28:48.420Z,7.30
2018-02-18T16:31:15.927Z,7.30
2018-02-18T16:33:43.610Z,7.40
2018-02-18T16:36:11.851Z,7.20
2018-02-18T16:38:39.344Z,7.20
2018-02-18T16:41:07.570Z,7.10
2018-02-18T16:43:35.120Z,7.10
2018-02-18T16:46:02.567Z,7.00
2018-02-18T16:48:30.107Z,7.00
2018-02-18T16:50:57.611Z,7.00
2018-02-18T16:53:25.079Z,7.00
2018-02-18T16:55:53.070Z,6.90
2018-02-18T16:58:20.548Z,6.80
2018-02-18T17:00:48.033Z,6.80
2018-02-18T17:03:15.743Z,6.80
2018-02-18T17:05:43.264Z,6.70
2018-02-18T17:08:10.747Z,6.70
2018-02-18T17:10:38.255Z,6.60
2018-02-18T17:13:06.531Z,6.60
2018-02-18T17:15:34.956Z,6.60
2018-02-18T17:18:02.792Z,6.60
2018-02-18T17:20:31.094Z,6.50
2018-02-18T17:22:58.563Z,6.50
2018-02-18T17:25:26.027Z,6.50
2018-02-18T17:27:53.614Z,6.40
2018-02-18T17:30:21.986Z,6.30
2018-02-18T17:32:50.327Z,6.30
2018-02-18T17:35:17.783Z,6.20
2018-02-18T17:37:45.645Z,6.20
2018-02-18T17:40:13.268Z,6.10
2018-02-18T17:42:41.602Z,6.00
2018-02-18T17:45:09.100Z,6.00
2018-02-18T17:47:37.346Z,6.00
2018-02-18T17:50:04.875Z,5.90
2018-02-18T17:52:32.335Z,5.90
2018-02-18T17:54:59.876Z,5.90
2018-02-18T17:57:28.114Z,5.80
2018-02-18T17:59:55.652Z,5.80
2018-02-18T18:02:23.152Z,5.70
2018-02-18T18:04:51.462Z,5.60
2018-02-18T18:07:18.929Z,5.60
2018-02-18T18:09:46.381Z,5.60
2018-02-18T18:12:13.834Z,5.50
2018-02-18T18:14:41.376Z,5.50
2018-02-18T18:17:08.879Z,5.50
2018-02-18T18:19:36.339Z,5.50
2018-02-18T18:22:03.888Z,5.40
2018-02-18T18:24:32.103Z,5.30
2018-02-18T18:27:01.010Z,5.30
2018-02-18T18:29:29.232Z,5.30
2018-02-18T18:31:56.688Z,5.30
2018-02-18T18:34:24.153Z,5.30
2018-02-18T18:36:51.952Z,5.20
2018-02-18T18:39:20.301Z,5.20
2018-02-18T18:41:47.800Z,5.10
2018-02-18T18:44:16.072Z,5.10
2018-02-18T18:46:44.505Z,5.10
2018-02-18T18:49:12.871Z,5.00
2018-02-18T18:51:40.560Z,5.00
2018-02-18T18:54:08.053Z,5.00
2018-02-18T18:56:35.550Z,5.00
2018-02-18T18:59:03.030Z,5.00
2018-02-18T19:01:30.624Z,4.90
2018-02-18T19:03:58.161Z,4.90
2018-02-18T19:06:25.664Z,4.90
2018-02-18T19:08:53.938Z,4.80
2018-02-18T19:11:21.476Z,4.80
2018-02-18T19:13:49.040Z,4.80
2018-02-18T19:16:17.294Z,4.70
2018-02-18T19:18:44.799Z,4.70
2018-02-18T19:21:12.278Z,4.70
2018-02-18T19:23:39.880Z,4.70
2018-02-18T19:26:07.357Z,4.70
2018-02-18T19:28:34.916Z,4.70
2018-02-18T19:31:03.170Z,4.70
2018-02-18T19:33:30.800Z,4.60
2018-02-18T19:35:58.327Z,4.70
2018-02-18T19:38:26.603Z,4.60
2018-02-18T19:40:54.984Z,4.50
2018-02-18T19:43:23.267Z,4.50
2018-02-18T19:45:51.544Z,4.50
2018-02-18T19:48:19.819Z,4.50
2018-02-18T19:50:48.285Z,4.50
2018-02-18T19:53:16.562Z,4.40
2018-02-18T19:55:44.847Z,4.40
2018-02-18T20:04:57.576Z,4.30
2018-02-18T20:07:25.030Z,4.10
2018-02-18T20:09:52.503Z,4.10
2018-02-18T20:12:20.027Z,4.10
2018-02-18T20:14:47.643Z,4.00
2018-02-18T20:17:15.113Z,4.10
2018-02-18T20:19:43.354Z,4.00
2018-02-18T20:22:10.840Z,4.00
2018-02-18T20:24:39.087Z,4.00
2018-02-18T20:27:06.644Z,4.00
2018-02-18T20:29:34.139Z,4.00
2018-02-18T20:32:02.415Z,3.90
2018-02-18T20:34:30.675Z,3.90
2018-02-18T20:36:58.140Z,3.90
2018-02-18T20:39:25.658Z,3.90
2018-02-18T20:41:53.125Z,4.00
2018-02-18T20:44:20.611Z,3.90
2018-02-18T20:46:48.202Z,3.90
2018-02-18T20:49:15.650Z,3.90
2018-02-18T20:51:43.904Z,3.90
2018-02-18T20:54:11.350Z,3.80
2018-02-18T20:56:38.830Z,3.90
2018-02-18T20:59:07.083Z,3.80
2018-02-18T21:01:34.550Z,3.80
2018-02-18T21:04:02.031Z,3.80
2018-02-18T21:06:30.316Z,3.70
2018-02-18T21:08:57.933Z,3.70
2018-02-18T21:11:25.398Z,3.70
2018-02-18T21:13:52.874Z,3.60
2018-02-18T21:16:21.154Z,3.60
2018-02-18T21:18:48.624Z,3.60
2018-02-18T21:21:16.896Z,3.60
2018-02-18T21:23:45.173Z,3.60
2018-02-18T21:26:13.490Z,3.60
2018-02-18T21:28:41.691Z,3.60
2018-02-18T21:31:09.247Z,3.50
2018-02-18T21:33:36.717Z,3.60
2018-02-18T21:36:04.242Z,3.60
2018-02-18T21:38:31.810Z,3.50
2018-02-18T21:40:59.329Z,3.50
2018-02-18T21:43:27.610Z,3.50
2018-02-18T21:45:55.972Z,3.60
2018-02-18T21:48:24.222Z,3.60
2018-02-18T21:50:51.704Z,3.50
2018-02-18T21:53:19.155Z,3.50
2018-02-18T21:55:46.735Z,3.50
2018-02-18T21:58:14.985Z,3.50
2018-02-18T22:00:42.455Z,3.50
2018-02-18T22:03:09.916Z,3.50
2018-02-18T22:05:37.375Z,3.60
2018-02-18T22:08:04.831Z,3.50
2018-02-18T22:10:32.337Z,3.50
2018-02-18T22:12:59.800Z,3.40
2018-02-18T22:15:28.077Z,3.40
2018-02-18T22:17:55.586Z,3.40
2018-02-18T22:20:23.204Z,3.40
2018-02-18T22:22:50.654Z,3.40
2018-02-18T22:25:18.145Z,3.40
2018-02-18T22:27:45.705Z,3.40
2018-02-18T22:30:13.183Z,3.40
2018-02-18T22:32:40.652Z,3.30
2018-02-18T22:35:08.123Z,3.30
2018-02-18T22:37:36.390Z,3.20
2018-02-18T22:40:04.615Z,3.20
2018-02-18T22:42:32.080Z,3.20
2018-02-18T22:44:59.537Z,3.20
2018-02-18T22:47:27.025Z,3.10
2018-02-18T22:49:54.483Z,3.10
2018-02-18T22:52:21.954Z,3.10
2018-02-18T22:54:50.197Z,3.00
2018-02-18T22:57:17.686Z,3.00
2018-02-18T22:59:45.151Z,3.00
2018-02-18T23:02:13.420Z,3.00
2018-02-18T23:04:41.677Z,2.90
2018-02-18T23:07:09.166Z,2.90
2018-02-18T23:09:36.766Z,2.90
2018-02-18T23:12:04.295Z,3.00
2018-02-18T23:14:32.516Z,2.90
2018-02-18T23:17:00.024Z,2.90
2018-02-18T23:19:28.289Z,2.90
2018-02-18T23:21:55.760Z,2.90
2018-02-18T23:24:24.016Z,2.90
2018-02-18T23:26:51.475Z,2.90
2018-02-18T23:29:18.938Z,2.90
2018-02-18T23:31:46.395Z,3.00
2018-02-18T23:34:13.863Z,3.00
2018-02-18T23:36:42.124Z,3.00
2018-02-18T23:39:09.608Z,3.00
2018-02-18T23:41:37.829Z,2.90
2018-02-18T23:44:05.314Z,3.00
2018-02-18T23:46:32.805Z,3.00
2018-02-18T23:49:01.023Z,2.90
2018-02-18T23:51:28.508Z,2.90
2018-02-18T23:53:56.263Z,2.90
2018-02-18T23:56:23.799Z,2.80
2018-02-18T23:58:51.301Z,2.80
